createdAt,value
2023-04-16T00:00:49.310Z,22.33
2023-04-16T00:03:18.549Z,22.70
2023-04-16T00:05:46.487Z,23.58
2023-04-16T00:08:14.622Z,22.30
2023-04-16T00:10:42.552Z,20.75
2023-04-16T00:13:10.399Z,22.38
2023-04-16T00:15:38.192Z,20.83
2023-04-16T00:18:05.980Z,20.67
2023-04-16T00:20:35.093Z,22.33
2023-04-16T00:23:02.904Z,21.20
2023-04-16T00:25:30.662Z,20.75
2023-04-16T00:27:58.465Z,23.17
2023-04-16T00:30:26.259Z,21.75
2023-04-16T00:32:54.119Z,21.95
2023-04-16T00:35:22.131Z,19.52
2023-04-16T00:37:51.265Z,21.60
2023-04-16T00:40:19.109Z,21.90
2023-04-16T00:42:47.000Z,20.90
2023-04-16T00:45:14.801Z,19.95
2023-04-16T00:47:42.702Z,22.15
2023-04-16T00:50:12.514Z,21.85
2023-04-16T00:52:41.094Z,23.20
2023-04-16T00:55:13.254Z,20.98
2023-04-16T01:00:10.260Z,22.10
2023-04-16T01:02:38.318Z,22.45
2023-04-16T01:05:06.720Z,22.17
2023-04-16T01:07:34.535Z,22.48
2023-04-16T01:10:02.309Z,23.58
2023-04-16T01:12:32.492Z,23.38
2023-04-16T01:15:00.717Z,23.63
2023-04-16T01:17:28.529Z,25.30
2023-04-16T01:20:00.006Z,23.92
2023-04-16T01:22:29.506Z,23.63
2023-04-16T01:24:57.272Z,24.48
2023-04-16T01:27:25.141Z,23.85
2023-04-16T01:29:53.096Z,25.88
2023-04-16T01:32:27.437Z,24.65
2023-04-16T01:34:55.205Z,24.67
2023-04-16T01:37:22.969Z,25.25
2023-04-16T01:39:52.136Z,23.15
2023-04-16T01:42:19.904Z,22.83
2023-04-16T01:44:48.474Z,24.48
2023-04-16T01:47:16.414Z,21.42
2023-04-16T01:49:45.654Z,24.45
2023-04-16T01:52:13.437Z,23.95
2023-04-16T01:54:41.162Z,23.98
2023-04-16T01:57:10.355Z,23.73
2023-04-16T01:59:38.279Z,20.08
2023-04-16T02:02:11.148Z,23.35
2023-04-16T02:04:40.724Z,22.65
2023-04-16T02:07:09.646Z,22.13
2023-04-16T02:09:38.771Z,20.30
2023-04-16T02:12:11.196Z,21.08
2023-04-16T02:14:40.433Z,21.25
2023-04-16T02:17:08.428Z,20.15
2023-04-16T02:19:41.763Z,18.80
2023-04-16T02:22:10.966Z,18.95
2023-04-16T02:24:38.726Z,18.83
2023-04-16T02:27:09.909Z,19.25
2023-04-16T02:29:38.189Z,16.80
2023-04-16T02:32:15.753Z,16.45
2023-04-16T02:34:46.033Z,15.10
2023-04-16T02:37:15.596Z,17.45
2023-04-16T02:39:43.951Z,17.13
2023-04-16T02:42:11.768Z,16.55
2023-04-16T02:44:39.586Z,17.13
2023-04-16T02:47:07.488Z,14.73
2023-04-16T02:49:36.729Z,13.35
2023-04-16T02:52:04.583Z,13.40
2023-04-16T02:54:32.323Z,13.18
2023-04-16T02:57:00.135Z,14.00
2023-04-16T02:59:28.433Z,13.55
2023-04-16T03:01:56.326Z,12.65
2023-04-16T03:04:24.350Z,11.52
2023-04-16T03:06:53.613Z,13.63
2023-04-16T03:09:21.731Z,12.40
2023-04-16T03:11:49.627Z,12.93
2023-04-16T03:14:17.367Z,13.55
2023-04-16T03:16:45.148Z,13.73
2023-04-16T03:19:12.927Z,13.05
2023-04-16T03:21:40.688Z,14.40
2023-04-16T03:24:09.837Z,13.98
2023-04-16T03:26:37.683Z,13.60
2023-04-16T03:29:05.758Z,14.63
2023-04-16T03:31:33.996Z,15.75
2023-04-16T03:34:01.907Z,15.18
2023-04-16T03:36:32.586Z,18.00
2023-04-16T03:39:00.470Z,16.70
2023-04-16T03:41:30.876Z,19.35
2023-04-16T03:43:59.672Z,19.45
2023-04-16T03:46:27.510Z,19.50
2023-04-16T03:48:55.647Z,20.08
2023-04-16T03:51:23.415Z,19.02
2023-04-16T03:53:51.167Z,21.67
2023-04-16T03:56:19.831Z,20.90
2023-04-16T03:58:48.963Z,22.52
2023-04-16T04:01:16.777Z,21.60
2023-04-16T04:03:44.701Z,22.83
2023-04-16T04:06:13.190Z,21.38
2023-04-16T04:08:40.985Z,22.23
2023-04-16T04:11:08.736Z,21.52
2023-04-16T04:13:37.166Z,22.13
2023-04-16T04:16:07.210Z,21.67
2023-04-16T04:18:35.063Z,22.98
2023-04-16T04:21:06.743Z,24.40
2023-04-16T04:23:35.021Z,24.05
2023-04-16T04:26:03.951Z,24.40
2023-04-16T04:28:32.127Z,24.05
2023-04-16T04:31:00.629Z,22.58
2023-04-16T04:33:31.173Z,21.75
2023-04-16T04:35:59.041Z,22.58
2023-04-16T04:38:28.009Z,23.42
2023-04-16T04:40:56.031Z,19.73
2023-04-16T04:43:25.451Z,20.67
2023-04-16T04:45:53.310Z,22.30
2023-04-16T04:48:26.118Z,22.83
2023-04-16T04:50:55.877Z,24.77
2023-04-16T04:53:23.659Z,23.90
2023-04-16T04:55:54.241Z,23.55
2023-04-16T04:58:25.591Z,23.63
2023-04-16T05:00:53.496Z,24.08
2023-04-16T05:03:22.329Z,24.00
2023-04-16T05:05:50.265Z,23.33
2023-04-16T05:08:19.455Z,24.73
2023-04-16T05:10:47.313Z,25.75
2023-04-16T05:13:15.136Z,23.77
2023-04-16T05:15:42.903Z,22.92
2023-04-16T05:18:10.705Z,25.80
2023-04-16T05:20:38.788Z,24.52
2023-04-16T05:23:06.523Z,24.98
2023-04-16T05:25:36.103Z,24.55
2023-04-16T05:28:03.863Z,24.60
2023-04-16T05:30:31.678Z,27.08
2023-04-16T05:32:59.759Z,25.40
2023-04-16T05:35:27.725Z,24.30
2023-04-16T05:37:55.453Z,24.50
2023-04-16T05:40:23.260Z,23.52
2023-04-16T05:42:52.347Z,23.92
2023-04-16T05:45:20.302Z,24.20
2023-04-16T05:47:48.146Z,26.15
2023-04-16T05:50:16.118Z,24.20
2023-04-16T05:52:43.876Z,23.73
2023-04-16T05:55:11.682Z,25.08
2023-04-16T05:57:39.470Z,25.55
2023-04-16T06:00:09.926Z,24.48
2023-04-16T06:02:40.721Z,23.63
2023-04-16T06:05:09.331Z,24.27
2023-04-16T06:07:37.102Z,25.55
2023-04-16T06:10:05.237Z,23.33
2023-04-16T06:12:32.986Z,24.38
2023-04-16T06:15:01.145Z,21.83
2023-04-16T06:17:30.253Z,24.45
2023-04-16T06:19:58.015Z,22.63
2023-04-16T06:22:26.097Z,24.00
2023-04-16T06:24:53.980Z,23.33
2023-04-16T06:27:21.714Z,23.23
2023-04-16T06:29:49.784Z,23.38
2023-04-16T06:32:18.208Z,24.30
2023-04-16T06:34:47.668Z,24.38
2023-04-16T06:37:16.201Z,23.85
2023-04-16T06:39:43.984Z,25.65
2023-04-16T06:42:11.812Z,25.55
2023-04-16T06:44:39.843Z,25.85
2023-04-16T06:47:07.666Z,23.92
2023-04-16T06:49:35.795Z,22.70
2023-04-16T06:52:05.900Z,26.88
2023-04-16T06:54:33.980Z,26.55
2023-04-16T06:57:01.749Z,25.42
2023-04-16T06:59:29.591Z,26.05
2023-04-16T07:01:57.812Z,24.90
2023-04-16T07:04:25.935Z,26.25
2023-04-16T07:06:53.755Z,23.95
2023-04-16T07:09:22.889Z,26.92
2023-04-16T07:11:50.747Z,25.77
2023-04-16T07:14:18.518Z,26.58
2023-04-16T07:16:46.346Z,23.67
2023-04-16T07:19:14.071Z,25.52
2023-04-16T07:21:43.559Z,24.00
2023-04-16T07:24:11.536Z,22.38
2023-04-16T07:26:41.000Z,22.52
2023-04-16T07:29:08.915Z,22.75
2023-04-16T07:31:36.866Z,22.23
2023-04-16T07:34:04.766Z,23.73
2023-04-16T07:36:32.823Z,21.52
2023-04-16T07:39:00.651Z,20.50
2023-04-16T07:41:29.457Z,22.30
2023-04-16T07:43:58.875Z,20.20
2023-04-16T07:46:30.702Z,20.88
2023-04-16T07:49:07.624Z,21.30
2023-04-16T07:51:35.521Z,21.23
2023-04-16T07:54:03.303Z,19.02
2023-04-16T07:56:31.088Z,19.15
2023-04-16T07:59:07.955Z,19.33
2023-04-16T08:01:42.537Z,16.40
2023-04-16T08:04:10.385Z,17.13
2023-04-16T08:06:38.303Z,17.02
2023-04-16T08:09:06.354Z,16.35
2023-04-16T08:11:34.191Z,17.20
2023-04-16T08:14:03.382Z,17.50
2023-04-16T08:16:31.118Z,16.75
2023-04-16T08:19:00.941Z,15.65
2023-04-16T08:21:29.306Z,16.67
2023-04-16T08:23:57.145Z,16.30
2023-04-16T08:26:24.984Z,17.35
2023-04-16T08:28:52.743Z,17.05
2023-04-16T08:31:22.037Z,15.43
2023-04-16T08:33:49.778Z,16.33
2023-04-16T08:36:17.631Z,16.45
2023-04-16T08:38:45.459Z,14.52
2023-04-16T08:41:14.970Z,16.10
2023-04-16T08:43:46.119Z,16.95
2023-04-16T08:46:14.101Z,14.50
2023-04-16T08:48:44.038Z,17.20
2023-04-16T08:51:12.997Z,15.00
2023-04-16T08:53:49.571Z,15.70
2023-04-16T08:56:21.380Z,17.73
2023-04-16T08:58:51.446Z,16.83
2023-04-16T09:01:20.657Z,16.30
2023-04-16T09:03:50.511Z,15.80
2023-04-16T09:06:18.613Z,16.80
2023-04-16T09:08:46.824Z,18.05
2023-04-16T09:11:14.992Z,16.48
2023-04-16T09:13:42.749Z,17.55
2023-04-16T09:16:11.910Z,15.32
2023-04-16T09:18:39.720Z,15.82
2023-04-16T09:21:11.251Z,16.45
2023-04-16T09:23:40.043Z,15.40
2023-04-16T09:26:07.863Z,17.90
2023-04-16T09:28:43.482Z,15.48
2023-04-16T09:31:15.712Z,15.38
2023-04-16T09:33:44.894Z,15.95
2023-04-16T09:36:14.103Z,15.00
2023-04-16T09:38:52.291Z,15.65
2023-04-16T09:41:21.554Z,16.60
2023-04-16T09:43:57.481Z,17.63
2023-04-16T09:46:26.785Z,16.05
2023-04-16T09:48:54.729Z,17.10
2023-04-16T09:51:24.802Z,16.17
2023-04-16T09:53:54.307Z,18.15
2023-04-16T09:56:26.748Z,18.45
2023-04-16T09:59:01.357Z,16.83
2023-04-16T10:01:31.514Z,18.35
2023-04-16T10:04:00.884Z,19.60
2023-04-16T10:06:31.164Z,19.35
2023-04-16T10:08:58.905Z,17.10
2023-04-16T10:11:27.087Z,18.95
2023-04-16T10:13:54.874Z,17.48
2023-04-16T10:16:23.606Z,19.73
2023-04-16T10:18:51.520Z,18.88
2023-04-16T10:21:19.962Z,18.33
2023-04-16T10:23:49.760Z,18.13
2023-04-16T10:26:19.279Z,21.00
2023-04-16T10:28:47.043Z,20.58
2023-04-16T10:31:15.144Z,18.38
2023-04-16T10:33:43.741Z,18.92
2023-04-16T10:36:13.004Z,19.95
2023-04-16T10:38:41.944Z,19.42
2023-04-16T10:41:11.416Z,20.92
2023-04-16T10:43:43.891Z,19.90
2023-04-16T10:46:22.801Z,19.30
2023-04-16T10:48:53.562Z,21.13
2023-04-16T10:51:27.722Z,20.50
2023-04-16T10:53:56.267Z,20.55
2023-04-16T10:56:26.362Z,21.17
2023-04-16T10:58:55.637Z,21.85
2023-04-16T11:01:32.273Z,20.23
2023-04-16T11:04:02.807Z,18.98
2023-04-16T11:06:31.938Z,21.45
2023-04-16T11:08:59.796Z,19.92
2023-04-16T11:11:39.076Z,22.98
2023-04-16T11:14:07.676Z,20.60
2023-04-16T11:16:35.420Z,20.20
2023-04-16T11:19:03.295Z,22.08
2023-04-16T11:21:31.772Z,21.77
2023-04-16T11:23:59.519Z,21.73
2023-04-16T11:26:31.548Z,23.38
2023-04-16T11:29:00.228Z,19.23
2023-04-16T11:31:28.191Z,20.70
2023-04-16T11:33:57.839Z,21.20
2023-04-16T11:36:27.742Z,20.13
2023-04-16T11:39:03.111Z,20.90
2023-04-16T11:41:32.289Z,22.40
2023-04-16T11:44:00.127Z,19.58
2023-04-16T11:46:39.701Z,19.77
2023-04-16T11:49:07.820Z,21.58
2023-04-16T11:51:40.910Z,21.10
2023-04-16T11:54:11.625Z,20.52
2023-04-16T11:56:47.601Z,22.98
2023-04-16T11:59:17.294Z,22.08
2023-04-16T12:01:48.027Z,22.88
2023-04-16T12:04:16.975Z,23.27
2023-04-16T12:07:05.858Z,22.05
2023-04-16T12:09:36.471Z,22.85
2023-04-16T12:12:07.588Z,24.33
2023-04-16T12:14:35.336Z,24.98
2023-04-16T12:17:19.844Z,21.63
2023-04-16T12:19:52.229Z,22.85
2023-04-16T12:22:28.217Z,24.23
2023-04-16T12:25:03.851Z,20.63
2023-04-16T12:27:49.028Z,22.95
2023-04-16T12:30:19.411Z,21.77
2023-04-16T12:32:49.987Z,22.48
2023-04-16T12:35:31.020Z,22.98
2023-04-16T12:37:58.830Z,22.73
2023-04-16T12:40:26.823Z,23.27
2023-04-16T12:42:56.112Z,21.90
2023-04-16T12:45:23.864Z,20.38
2023-04-16T12:47:51.677Z,21.88
2023-04-16T12:50:19.464Z,21.70
2023-04-16T12:52:47.234Z,22.80
2023-04-16T12:55:15.221Z,21.02
2023-04-16T12:57:43.035Z,21.33
2023-04-16T13:00:14.725Z,19.88
2023-04-16T13:02:42.686Z,19.97
2023-04-16T13:05:11.283Z,19.52
2023-04-16T13:07:39.046Z,21.23
2023-04-16T13:10:08.155Z,22.73
2023-04-16T13:12:35.907Z,20.60
2023-04-16T13:15:03.687Z,19.30
2023-04-16T13:17:32.834Z,20.88
2023-04-16T13:20:00.655Z,21.10
2023-04-16T13:22:28.465Z,21.27
2023-04-16T13:24:56.537Z,21.17
2023-04-16T13:27:24.296Z,21.13
2023-04-16T13:29:52.062Z,20.75
2023-04-16T13:32:20.029Z,21.85
2023-04-16T13:34:49.157Z,20.60
2023-04-16T13:37:16.982Z,19.10
2023-04-16T13:39:45.148Z,17.42
2023-04-16T13:42:12.906Z,18.15
2023-04-16T13:44:40.958Z,18.35
2023-04-16T13:47:08.748Z,19.70
2023-04-16T13:49:36.537Z,17.33
2023-04-16T13:52:05.868Z,18.25
2023-04-16T13:54:34.257Z,17.50
2023-04-16T13:57:02.018Z,16.73
2023-04-16T13:59:29.969Z,17.27
2023-04-16T14:01:58.535Z,15.77
2023-04-16T14:04:26.469Z,14.60
2023-04-16T14:06:54.278Z,17.30
2023-04-16T14:09:23.525Z,16.10
2023-04-16T14:11:52.172Z,15.80
2023-04-16T14:14:20.215Z,15.68
2023-04-16T14:16:48.194Z,13.80
2023-04-16T14:19:16.007Z,14.48
2023-04-16T14:21:43.831Z,13.45
2023-04-16T14:24:11.593Z,13.05
2023-04-16T14:26:40.787Z,14.40
2023-04-16T14:29:08.845Z,12.75
2023-04-16T14:31:37.071Z,12.77
2023-04-16T14:34:04.890Z,13.70
2023-04-16T14:36:32.662Z,13.85
2023-04-16T14:39:00.465Z,13.32
2023-04-16T14:41:28.256Z,13.25
2023-04-16T14:43:57.386Z,11.60
2023-04-16T14:46:27.081Z,11.02
2023-04-16T14:49:39.077Z,11.63
2023-04-16T14:52:12.452Z,11.25
2023-04-16T14:54:40.394Z,10.88
2023-04-16T14:57:08.161Z,10.18
2023-04-16T14:59:37.283Z,10.50
2023-04-16T15:02:05.146Z,9.85
2023-04-16T15:04:33.285Z,9.75
2023-04-16T15:07:01.322Z,9.50
2023-04-16T15:09:29.097Z,9.38
2023-04-16T15:11:57.084Z,8.88
2023-04-16T15:14:24.886Z,7.72
2023-04-16T15:16:54.375Z,8.60
2023-04-16T15:19:22.377Z,9.57
2023-04-16T15:21:50.158Z,8.20
2023-04-16T15:24:17.920Z,7.72
2023-04-16T15:26:45.632Z,8.98
2023-04-16T15:29:13.395Z,7.93
2023-04-16T15:31:41.219Z,8.00
2023-04-16T15:34:10.544Z,7.85
2023-04-16T15:36:38.429Z,8.20
2023-04-16T15:39:06.224Z,8.40
2023-04-16T15:41:36.969Z,8.43
2023-04-16T15:44:04.829Z,9.10
2023-04-16T15:46:32.604Z,8.43
2023-04-16T15:49:00.458Z,8.65
2023-04-16T15:51:31.535Z,7.75
2023-04-16T15:53:59.757Z,8.23
2023-04-16T15:56:27.682Z,8.55
2023-04-16T15:58:55.440Z,8.23
2023-04-16T16:01:23.313Z,8.23
2023-04-16T16:03:51.526Z,8.07
2023-04-16T16:06:20.809Z,7.95
2023-04-16T16:08:50.197Z,6.70
2023-04-16T16:11:17.942Z,8.07
2023-04-16T16:13:45.780Z,8.30
2023-04-16T16:16:13.577Z,8.90
2023-04-16T16:18:42.079Z,8.63
2023-04-16T16:21:10.023Z,8.55
2023-04-16T16:23:37.810Z,9.05
2023-04-16T16:26:07.126Z,10.48
2023-04-16T16:28:37.554Z,10.65
2023-04-16T16:31:06.037Z,11.32
2023-04-16T16:33:34.285Z,9.43
2023-04-16T16:36:02.071Z,10.15
2023-04-16T16:38:29.818Z,10.93
2023-04-16T16:40:57.646Z,13.52
2023-04-16T16:43:27.133Z,13.27
2023-04-16T16:45:54.924Z,11.68
2023-04-16T16:48:22.668Z,13.18
2023-04-16T16:50:50.512Z,13.13
2023-04-16T16:53:18.323Z,14.50
2023-04-16T16:55:46.354Z,12.43
2023-04-16T16:58:14.123Z,14.27
2023-04-16T17:00:43.257Z,14.32
2023-04-16T17:03:11.421Z,14.82
2023-04-16T17:05:39.448Z,15.52
2023-04-16T17:08:07.593Z,16.52
2023-04-16T17:10:36.478Z,17.00
2023-04-16T17:13:04.271Z,12.13
2023-04-16T17:15:32.163Z,14.77
2023-04-16T17:18:01.371Z,20.33
2023-04-16T17:20:29.223Z,16.95
2023-04-16T17:22:56.999Z,17.73
2023-04-16T17:25:25.237Z,17.17
2023-04-16T17:27:53.049Z,15.75
2023-04-16T17:30:23.645Z,18.48
2023-04-16T17:32:51.494Z,18.08
2023-04-16T17:35:20.979Z,17.67
2023-04-16T17:37:48.808Z,18.92
2023-04-16T17:40:18.200Z,17.67
2023-04-16T17:42:46.194Z,17.92
2023-04-16T17:45:14.261Z,18.85
2023-04-16T17:47:42.310Z,19.42
2023-04-16T17:50:17.440Z,19.72
2023-04-16T17:52:47.213Z,19.60
2023-04-16T17:55:15.323Z,18.73
2023-04-16T17:57:44.613Z,17.10
2023-04-16T18:00:14.249Z,20.90
2023-04-16T18:02:42.271Z,27.60
2023-04-16T18:05:10.675Z,20.75
2023-04-16T18:07:39.038Z,21.42
2023-04-16T18:10:10.166Z,20.75
2023-04-16T18:12:37.999Z,17.90
2023-04-16T18:15:07.063Z,18.17
2023-04-16T18:17:34.847Z,17.38
2023-04-16T18:20:05.237Z,18.55
2023-04-16T18:22:33.105Z,15.50
2023-04-16T18:25:01.070Z,19.70
2023-04-16T18:27:30.187Z,16.95
2023-04-16T18:29:57.975Z,19.38
2023-04-16T18:32:26.015Z,17.75
2023-04-16T18:34:53.944Z,17.55
2023-04-16T18:37:21.709Z,17.38
2023-04-16T18:39:49.465Z,17.83
2023-04-16T18:42:17.234Z,17.65
2023-04-16T18:44:52.623Z,17.42
2023-04-16T18:47:20.740Z,18.33
2023-04-16T18:49:48.770Z,17.00
2023-04-16T18:52:16.599Z,18.45
2023-04-16T18:54:44.649Z,17.52
2023-04-16T18:57:12.408Z,17.38
2023-04-16T18:59:40.174Z,17.10
2023-04-16T19:02:09.296Z,17.67
2023-04-16T19:04:38.091Z,17.60
2023-04-16T19:07:06.066Z,17.83
2023-04-16T19:09:33.867Z,17.40
2023-04-16T19:12:01.883Z,14.13
2023-04-16T19:14:29.759Z,21.15
2023-04-16T19:16:57.637Z,18.10
2023-04-16T19:19:26.766Z,18.38
2023-04-16T19:21:54.526Z,16.65
2023-04-16T19:24:23.498Z,17.65
2023-04-16T19:26:51.308Z,21.50
2023-04-16T19:29:19.153Z,20.65
2023-04-16T19:31:47.362Z,20.10
2023-04-16T19:34:15.377Z,20.25
2023-04-16T19:36:45.376Z,18.95
2023-04-16T19:39:13.219Z,14.73
2023-04-16T19:41:41.090Z,18.00
2023-04-16T19:44:10.904Z,19.27
2023-04-16T19:46:38.653Z,18.23
2023-04-16T19:49:06.388Z,19.13
2023-04-16T19:51:34.709Z,20.90
2023-04-16T19:54:03.886Z,20.98
2023-04-16T19:56:31.652Z,20.48
2023-04-16T19:59:00.701Z,18.63
2023-04-16T20:01:30.738Z,19.35
2023-04-16T20:03:58.658Z,18.73
2023-04-16T20:06:26.825Z,20.38
2023-04-16T20:08:56.584Z,18.73
2023-04-16T20:11:25.905Z,18.67
2023-04-16T20:13:54.330Z,17.92
2023-04-16T20:16:24.038Z,18.25
2023-04-16T20:18:54.210Z,15.98
2023-04-16T20:21:22.580Z,15.70
2023-04-16T20:23:50.366Z,16.63
2023-04-16T20:26:18.598Z,15.10
2023-04-16T20:28:47.836Z,14.80
2023-04-16T20:31:15.726Z,12.80
2023-04-16T20:33:43.528Z,17.15
2023-04-16T20:36:11.320Z,13.80
2023-04-16T20:38:39.102Z,14.88
2023-04-16T20:41:10.109Z,19.27
2023-04-16T20:43:40.620Z,14.20
2023-04-16T20:46:10.738Z,16.88
2023-04-16T20:48:39.682Z,17.27
2023-04-16T20:51:09.385Z,14.23
2023-04-16T20:53:38.143Z,15.88
2023-04-16T20:56:06.763Z,15.32
2023-04-16T20:58:34.598Z,13.40
2023-04-16T21:01:02.605Z,16.05
2023-04-16T21:03:32.017Z,17.10
2023-04-16T21:06:01.706Z,16.38
2023-04-16T21:08:29.611Z,15.18
2023-04-16T21:10:57.446Z,17.23
2023-04-16T21:13:25.246Z,14.68
2023-04-16T21:15:53.516Z,18.88
2023-04-16T21:18:21.389Z,13.82
2023-04-16T21:20:50.542Z,16.08
2023-04-16T21:23:18.303Z,16.98
2023-04-16T21:25:46.118Z,17.23
2023-04-16T21:28:13.943Z,16.08
2023-04-16T21:30:42.227Z,20.65
2023-04-16T21:33:11.812Z,18.85
2023-04-16T21:35:39.613Z,17.23
2023-04-16T21:38:08.708Z,17.20
2023-04-16T21:40:36.568Z,17.48
2023-04-16T21:43:04.365Z,16.63
2023-04-16T21:45:32.172Z,19.27
2023-04-16T21:48:00.039Z,19.65
2023-04-16T21:50:28.054Z,19.63
2023-04-16T21:52:55.852Z,15.52
2023-04-16T21:55:25.183Z,16.73
2023-04-16T21:57:52.921Z,17.08
2023-04-16T22:00:21.274Z,15.68
2023-04-16T22:06:36.129Z,19.35
2023-04-16T22:09:05.036Z,17.60
2023-04-16T22:11:32.855Z,14.48
2023-04-16T22:14:00.640Z,15.15
2023-04-16T22:16:29.008Z,16.33
2023-04-16T22:18:57.472Z,14.70
2023-04-16T22:21:25.940Z,17.98
2023-04-16T22:23:55.405Z,16.67
2023-04-16T22:26:23.278Z,18.55
2023-04-16T22:28:51.460Z,15.73
2023-04-16T22:31:19.224Z,14.80
2023-04-16T22:33:47.067Z,13.68
2023-04-16T22:36:14.936Z,12.95
2023-04-16T22:38:42.996Z,14.13
2023-04-16T22:41:12.328Z,16.42
2023-04-16T22:43:40.462Z,18.58
2023-04-16T22:46:08.992Z,15.88
2023-04-16T22:48:38.740Z,16.88
2023-04-16T22:51:08.962Z,16.80
2023-04-16T22:53:36.968Z,16.30
2023-04-16T22:56:04.882Z,16.70
2023-04-16T22:58:33.996Z,16.63
2023-04-16T23:01:01.898Z,16.48
2023-04-16T23:03:30.585Z,15.43
2023-04-16T23:05:58.552Z,16.45
2023-04-16T23:08:26.374Z,15.50
2023-04-16T23:10:54.120Z,15.38
2023-04-16T23:13:21.943Z,12.38
2023-04-16T23:15:51.392Z,12.88
2023-04-16T23:18:19.239Z,16.23
2023-04-16T23:20:46.960Z,15.38
2023-04-16T23:23:14.759Z,15.95
2023-04-16T23:25:42.638Z,16.20
2023-04-16T23:28:10.628Z,15.63
2023-04-16T23:30:38.638Z,16.23
2023-04-16T23:33:07.839Z,14.30
2023-04-16T23:35:35.933Z,15.77
2023-04-16T23:38:04.223Z,16.02
2023-04-16T23:40:32.120Z,13.48
2023-04-16T23:42:59.950Z,14.02
2023-04-16T23:45:27.843Z,17.35
2023-04-16T23:47:55.879Z,15.15
2023-04-16T23:50:25.234Z,12.27
2023-04-16T23:52:52.993Z,15.15
2023-04-16T23:55:20.966Z,15.43
2023-04-16T23:57:49.743Z,14.75
